Capitol Logistics 569


EBLG
Liège Airport
Liege, BE
VIDP
Indira Gandhi International Airport
New Delhi, IN

Route Details

Aircraft Information
Primary: Boeing 747-400BCF
Backup: Boeing 777-200LRF
Route Data
Distance: 4244nm
Sched. Duration: 9h 00m
Avg. Duration: 9h 28m (+29m)
Times Flown: 2
Recm'd Route: LNO MTR Z719 OSBIT UZ205 LULAR Z205 ABUDO NARKA Z650 TOMET L624 ADINA L851 ERZ W71 MUS OTKEP UM688 PEBAD UP975 SESRA M677 ITBUL M677 LOVEM M677 KURTU P321 NOLSU P307 VAXIM RASKI L639 AAE Q3 BUBNU Q1 DIPAS DIPAS5D
Planned Altitude: 31,000ft
Origin Wx: EBLG 032150Z 24006KT 9999 FEW040 15/11 Q1019 NOSIG
Dest. Wx: VIDP 032200Z 11006KT 3500 HZ FEW035 FEW040CB SCT100 31/24 Q0998 NOSIG
Notes:

Financial History
Total Freight: 304,320lbs
Average Load: 152,160lbs/flt
Fuel Used: 212,618lbs
Avg. Fuel Used: 106,309lbs/flt
Fuel Expense: $236,006
Avg. Fuel Expense: $118,003
Avg. Fuel Cost: $1.11/lbs
Total Gross Income: $1,153,373
Pilot Pay: $388
Total Expenses: $124,668
Total Revenue: $788,740
Average Revenue: $576,686.41